Aktuální počasí v Česku a ve světě - METAR

Seznam meteostanic umístěných nejčasteji na letišti v ČR a ve světě

Vyhledat místa podle abecedy:
A B C D E F G H I J K L M N O P Q R S T U V W X Y Z

Filtrovat:

ID stanice:
a/nebo
Název místa (fulltext):
 
Místo (ID)Naposledy načteno 
Doksany - Litoměřice (Doksany) 21.04.2021 23:00 UTC Zobrazit data
Místo: Doksany - Litoměřice
Teplota: 8 °C (pocitová: 5.5 °C)
Vítr: 1 m/s z(e) 0°
Počasí: skoro zataženo
Dohlednost: 25 km
Zákl. oblačnosti: 7/8 2700 m
Vlhkost: 62%
Dukovany (Dukovany) 21.04.2021 23:00 UTC Zobrazit data
Místo: Dukovany
Teplota: 6 °C (pocitová: -0.2 °C)
Vítr: 4 m/s z(e) 310°
Počasí: skoro zataženo
Dohlednost: 17 km
Zákl. oblačnosti: 7/8 3000 m
Vlhkost: 81%
Dakar (GOOY) 22.04.2021 00:00 UTC Zobrazit METAR
GOOY 220000Z 34006KT 8000 NSC 20/19 Q1012
Damascus (OSDI) 22.04.2021 00:00 UTC Zobrazit METAR
OSDI 220000Z 20012KT CAVOK 12/03 Q1017
Debrecen (LHDC) 21.04.2021 23:45 UTC Zobrazit METAR
LHDC 212345Z AUTO 18008KT 7000 NSC 08/07 Q1017
Delhi (VIDP) 22.04.2021 00:00 UTC Zobrazit METAR
VIDP 220000Z 00000KT 3200 HZ FEW100 22/15 Q1011 BECMG 3000 HZ
Dhaka (VGZR) Zatím nenačteno  
Diego Garcia (FJDG) 21.04.2021 23:55 UTC Zobrazit METAR
FJDG 212355Z 00000KT 9999 FEW021 27/24 A2985 RMK SLP05 8/100 T02690240 10282 20269 55000
Djibouti (HDAM) 21.04.2021 20:00 UTC Zobrazit METAR
HDAM 212000Z 15007KT 9999 FEW020 28/23 Q1012
Dnipropetrovs'k (UKDD) 12.08.2013 14:00 UTC Zobrazit METAR
UKDD 121400Z CAVOK 33/13 Q1012 08090070 NOSIG
Dodoma (HTDO) 21.04.2021 20:00 UTC Zobrazit METAR
HTDO 212000Z 06005KT 9999 FEW021 21/17 Q1020 NOSIG
Doha (OTBD) 22.04.2021 00:00 UTC Zobrazit METAR
OTBD 220000Z AUTO 01004KT CAVOK 25/16 Q1010 NOSIG
Dortmund (EDLW) 21.04.2021 19:50 UTC Zobrazit METAR
EDLW 211950Z 36007KT 320V030 9999 FEW040 08/M01 Q1020
Dresden (EDDC) 21.04.2021 23:50 UTC Zobrazit METAR
EDDC 212350Z 33010KT 300V360 9999 -RA BKN034 07/M02 Q1016
Dublin (EIDW) 22.04.2021 00:00 UTC Zobrazit METAR
EIDW 220000Z VRB01KT 7000 FEW006 02/02 Q1024 NOSIG
Dubrovnik (LDDU) 22.04.2021 00:00 UTC Zobrazit METAR
LDDU 220000Z 08008KT CAVOK 09/05 Q1022
Dushanbe (UTDD) Zatím nenačteno  
Dusseldorf (EDDL) 21.04.2021 23:50 UTC Zobrazit METAR
EDDL 212350Z 01004KT CAVOK 04/M01 Q1022 NOSIG
Dzaoudzi (FMCZ) 22.04.2021 00:00 UTC Zobrazit METAR
FMCZ 220000Z AUTO 17011KT 9999 BKN024 BKN029 BKN034 28/24 Q1010 TEMPO 1200 TSRA SCT018CB
Reklama

Reklama


Newslettter

Počasí na Váš email

Emaily jsou bez reklamy a bez spamu



Odhlásit newsletter




Další české internetové stránky (nejen) o počasí najdete v katalogu TOPlist - weby o počasí nebo vyhledejte na internetu, co jste tu na Počasí Slunečno Slunečnu zatím nenašli:
Přidat mezzi oblíbené stránkyPřidat Slunečno.cz do oblíbených | Nastavit jako HOMEPAGENastavit Slunečno.cz jako HOMEPAGE

Posunout stránku nahoru Posunout stránku nahoru Posunout stránku nahoru
Reklama